createdAt,value
2022-10-18T00:00:45.837Z,49.13
2022-10-18T00:11:08.939Z,47.08
2022-10-18T00:21:30.605Z,37.60
2022-10-18T00:31:53.497Z,34.00
2022-10-18T00:42:18.571Z,44.25
2022-10-18T00:52:44.747Z,42.73
2022-10-18T01:03:07.404Z,48.20
2022-10-18T01:13:41.529Z,40.22
2022-10-18T01:24:36.613Z,40.95
2022-10-18T01:45:24.318Z,33.30
2022-10-18T01:55:54.814Z,31.13
2022-10-18T02:06:21.135Z,34.55
2022-10-18T02:16:46.608Z,32.33
2022-10-18T02:27:08.763Z,33.15
2022-10-18T02:37:35.413Z,34.63
2022-10-18T02:47:57.134Z,26.75
2022-10-18T02:58:19.964Z,26.48
2022-10-18T03:08:41.552Z,25.27
2022-10-18T03:19:04.547Z,27.55
2022-10-18T03:29:25.716Z,27.95
2022-10-18T03:39:48.299Z,30.95
2022-10-18T03:50:10.321Z,27.95
2022-10-18T04:00:33.806Z,31.23
2022-10-18T04:10:55.109Z,31.77
2022-10-18T04:21:17.957Z,30.20
2022-10-18T04:31:39.542Z,45.58
2022-10-18T04:42:02.276Z,32.25
2022-10-18T04:52:23.450Z,34.58
2022-10-18T05:02:46.118Z,37.67
2022-10-18T05:13:08.223Z,41.28
2022-10-18T05:23:31.069Z,39.58
2022-10-18T05:33:54.585Z,38.40
2022-10-18T05:44:17.319Z,39.78
2022-10-18T05:54:38.779Z,46.88
2022-10-18T06:05:01.952Z,33.97
2022-10-18T06:15:23.214Z,39.65
2022-10-18T06:25:45.810Z,41.80
2022-10-18T06:36:08.944Z,40.30
2022-10-18T06:46:31.819Z,44.28
2022-10-18T06:56:56.935Z,35.38
2022-10-18T07:07:21.113Z,39.80
2022-10-18T07:17:45.086Z,37.20
2022-10-18T07:28:07.809Z,53.53
2022-10-18T07:38:29.319Z,33.58
2022-10-18T07:48:56.970Z,29.25
2022-10-18T07:59:18.881Z,32.67
2022-10-18T08:09:41.528Z,27.90
2022-10-18T08:20:12.292Z,29.88
2022-10-18T08:30:42.274Z,31.80
2022-10-18T08:41:15.452Z,22.23
2022-10-18T08:51:43.700Z,25.08
2022-10-18T09:02:20.509Z,22.35
2022-10-18T09:13:03.098Z,24.88
2022-10-18T09:23:39.465Z,14.23
2022-10-18T09:34:07.291Z,13.82
2022-10-18T09:44:32.924Z,16.23
2022-10-18T10:05:18.881Z,12.05
2022-10-18T10:15:46.760Z,14.52
2022-10-18T10:26:24.190Z,16.35
2022-10-18T10:36:50.081Z,17.13
2022-10-18T10:57:35.034Z,22.00
2022-10-18T11:07:59.793Z,21.83
2022-10-18T11:18:26.731Z,23.47
2022-10-18T11:29:06.454Z,29.92
2022-10-18T11:39:39.446Z,20.45
2022-10-18T11:50:10.276Z,29.25
2022-10-18T12:00:50.061Z,27.10
2022-10-18T12:11:15.690Z,26.25
2022-10-18T12:21:38.834Z,21.10
2022-10-18T12:32:06.227Z,19.73
2022-10-18T12:42:31.688Z,19.58
2022-10-18T12:53:04.183Z,15.88
2022-10-18T13:03:56.202Z,17.25
2022-10-18T13:14:48.307Z,18.45
2022-10-18T13:25:28.521Z,18.75
2022-10-18T13:35:56.160Z,14.15
2022-10-18T13:46:19.334Z,19.63
2022-10-18T13:56:57.929Z,20.17
2022-10-18T14:07:20.498Z,21.75
2022-10-18T14:17:47.582Z,16.02
2022-10-18T14:28:14.381Z,20.17
2022-10-18T14:38:45.701Z,15.10
2022-10-18T14:49:20.940Z,16.67
2022-10-18T14:59:46.754Z,17.75
2022-10-18T15:10:15.786Z,19.65
2022-10-18T15:20:44.661Z,21.02
2022-10-18T15:31:07.735Z,25.98
2022-10-18T15:41:40.514Z,31.27
2022-10-18T15:52:36.678Z,29.77
2022-10-18T16:02:59.322Z,38.15
2022-10-18T16:13:22.017Z,41.72
2022-10-18T16:23:43.417Z,44.42
2022-10-18T16:34:06.830Z,51.63
2022-10-18T16:44:28.299Z,49.40
2022-10-18T16:54:58.013Z,48.10
2022-10-18T17:05:31.828Z,45.58
2022-10-18T17:16:07.413Z,39.47
2022-10-18T17:26:33.367Z,48.20
2022-10-18T17:36:58.194Z,43.63
2022-10-18T17:47:22.542Z,57.05
2022-10-18T17:57:45.605Z,58.67
2022-10-18T18:08:11.163Z,60.17
2022-10-18T18:18:35.482Z,63.40
2022-10-18T18:28:57.085Z,55.95
2022-10-18T18:39:35.981Z,62.17
2022-10-18T18:50:00.701Z,61.63
2022-10-18T19:00:26.765Z,68.13
2022-10-18T19:10:51.865Z,62.17
2022-10-18T19:21:18.684Z,60.33
2022-10-18T19:31:48.351Z,64.45
2022-10-18T19:42:22.638Z,48.70
2022-10-18T19:52:59.860Z,50.13
2022-10-18T20:03:26.275Z,39.75
2022-10-18T20:13:55.859Z,54.22
2022-10-18T20:24:19.657Z,45.42
2022-10-18T20:34:41.171Z,29.98
2022-10-18T20:45:11.822Z,29.13
2022-10-18T20:55:34.515Z,37.85
2022-10-18T21:06:14.152Z,24.13
2022-10-18T21:16:40.297Z,36.65
2022-10-18T21:27:27.091Z,29.23
2022-10-18T21:37:49.125Z,19.15
2022-10-18T21:48:15.388Z,29.02
2022-10-18T21:58:41.215Z,27.25
2022-10-18T22:09:08.272Z,32.28
2022-10-18T22:19:32.548Z,30.35
2022-10-18T22:29:59.249Z,33.58
2022-10-18T22:40:28.351Z,26.05
2022-10-18T22:50:51.919Z,35.30
2022-10-18T23:01:15.262Z,15.05
2022-10-18T23:11:43.662Z,34.78
2022-10-18T23:22:17.315Z,33.53
2022-10-18T23:32:44.022Z,25.63
2022-10-18T23:43:08.578Z,26.30
2022-10-18T23:53:34.792Z,37.92
